sensor_id;sensor_type;location;lat;lon;timestamp;pressure;altitude;pressure_sealevel;temperature;humidity
46724;BME280;32463;48.298;11.620;2023-01-16T00:01:29;95345.97;;;1.00;100.00
46724;BME280;32463;48.298;11.620;2023-01-16T00:04:16;95360.56;;;1.09;100.00
46724;BME280;32463;48.298;11.620;2023-01-16T00:06:43;95350.59;;;1.06;100.00
46724;BME280;32463;48.298;11.620;2023-01-16T00:09:10;95345.50;;;1.06;100.00
46724;BME280;32463;48.298;11.620;2023-01-16T00:11:36;95342.00;;;1.07;100.00
46724;BME280;32463;48.298;11.620;2023-01-16T00:14:03;95330.19;;;1.06;100.00
46724;BME280;32463;48.298;11.620;2023-01-16T00:16:31;95331.97;;;1.15;100.00
46724;BME280;32463;48.298;11.620;2023-01-16T00:18:58;95337.78;;;1.17;100.00
46724;BME280;32463;48.298;11.620;2023-01-16T00:21:29;95317.03;;;1.11;100.00
46724;BME280;32463;48.298;11.620;2023-01-16T00:23:57;95328.78;;;1.23;100.00
46724;BME280;32463;48.298;11.620;2023-01-16T00:26:25;95310.09;;;1.22;100.00
46724;BME280;32463;48.298;11.620;2023-01-16T00:28:52;95329.53;;;1.34;100.00
46724;BME280;32463;48.298;11.620;2023-01-16T00:31:19;95315.13;;;1.33;100.00
46724;BME280;32463;48.298;11.620;2023-01-16T00:33:51;95316.13;;;1.42;100.00
46724;BME280;32463;48.298;11.620;2023-01-16T00:36:18;95317.19;;;1.40;100.00
46724;BME280;32463;48.298;11.620;2023-01-16T00:38:45;95305.34;;;1.39;100.00
46724;BME280;32463;48.298;11.620;2023-01-16T00:41:12;95302.69;;;1.40;100.00
46724;BME280;32463;48.298;11.620;2023-01-16T00:43:39;95293.78;;;1.34;100.00
46724;BME280;32463;48.298;11.620;2023-01-16T00:46:05;95295.94;;;1.39;100.00
46724;BME280;32463;48.298;11.620;2023-01-16T00:48:33;95284.25;;;1.37;100.00
46724;BME280;32463;48.298;11.620;2023-01-16T00:51:05;95288.03;;;1.42;100.00
46724;BME280;32463;48.298;11.620;2023-01-16T00:53:35;95291.91;;;1.37;100.00
46724;BME280;32463;48.298;11.620;2023-01-16T00:56:01;95290.78;;;1.29;100.00
46724;BME280;32463;48.298;11.620;2023-01-16T00:58:28;95286.63;;;1.28;100.00
46724;BME280;32463;48.298;11.620;2023-01-16T01:00:54;95280.56;;;1.20;100.00
46724;BME280;32463;48.298;11.620;2023-01-16T01:03:21;95280.16;;;1.24;100.00
46724;BME280;32463;48.298;11.620;2023-01-16T01:05:47;95273.59;;;1.22;100.00
46724;BME280;32463;48.298;11.620;2023-01-16T01:08:13;95277.31;;;1.18;100.00
46724;BME280;32463;48.298;11.620;2023-01-16T01:10:40;95265.44;;;1.07;100.00
46724;BME280;32463;48.298;11.620;2023-01-16T01:13:07;95271.47;;;1.06;100.00
46724;BME280;32463;48.298;11.620;2023-01-16T01:15:34;95269.19;;;1.03;100.00
46724;BME280;32463;48.298;11.620;2023-01-16T01:18:01;95261.34;;;0.95;100.00
46724;BME280;32463;48.298;11.620;2023-01-16T01:20:28;95261.88;;;0.89;100.00
46724;BME280;32463;48.298;11.620;2023-01-16T01:22:54;95253.78;;;0.84;100.00
46724;BME280;32463;48.298;11.620;2023-01-16T01:25:21;95250.28;;;0.85;100.00
46724;BME280;32463;48.298;11.620;2023-01-16T01:27:48;95242.44;;;0.77;100.00
46724;BME280;32463;48.298;11.620;2023-01-16T01:30:15;95242.94;;;0.71;100.00
46724;BME280;32463;48.298;11.620;2023-01-16T01:32:42;95232.19;;;0.67;100.00
46724;BME280;32463;48.298;11.620;2023-01-16T01:35:08;95237.66;;;0.62;100.00
46724;BME280;32463;48.298;11.620;2023-01-16T01:37:35;95224.75;;;0.54;100.00
46724;BME280;32463;48.298;11.620;2023-01-16T01:40:03;95234.69;;;0.57;100.00
46724;BME280;32463;48.298;11.620;2023-01-16T01:42:36;95232.13;;;0.57;100.00
46724;BME280;32463;48.298;11.620;2023-01-16T01:47:40;95223.66;;;0.36;100.00
46724;BME280;32463;48.298;11.620;2023-01-16T01:50:42;95215.31;;;0.34;100.00
46724;BME280;32463;48.298;11.620;2023-01-16T01:53:14;95213.97;;;0.30;100.00
46724;BME280;32463;48.298;11.620;2023-01-16T01:55:44;95209.69;;;0.30;100.00
46724;BME280;32463;48.298;11.620;2023-01-16T01:58:14;95197.06;;;0.29;100.00
46724;BME280;32463;48.298;11.620;2023-01-16T02:00:48;95196.25;;;0.28;100.00
46724;BME280;32463;48.298;11.620;2023-01-16T02:03:20;95195.81;;;0.44;100.00
46724;BME280;32463;48.298;11.620;2023-01-16T02:05:52;95183.19;;;0.43;100.00
46724;BME280;32463;48.298;11.620;2023-01-16T02:08:21;95178.66;;;0.46;100.00
46724;BME280;32463;48.298;11.620;2023-01-16T02:10:55;95171.44;;;0.51;100.00
46724;BME280;32463;48.298;11.620;2023-01-16T02:13:22;95169.88;;;0.60;100.00
46724;BME280;32463;48.298;11.620;2023-01-16T02:15:49;95156.31;;;0.59;100.00
46724;BME280;32463;48.298;11.620;2023-01-16T02:18:33;95155.91;;;0.64;100.00
46724;BME280;32463;48.298;11.620;2023-01-16T02:26:57;95142.88;;;0.88;100.00
46724;BME280;32463;48.298;11.620;2023-01-16T02:29:44;95131.06;;;0.87;100.00
46724;BME280;32463;48.298;11.620;2023-01-16T02:37:55;95112.88;;;0.71;100.00
46724;BME280;32463;48.298;11.620;2023-01-16T02:45:52;95107.59;;;0.62;100.00
46724;BME280;32463;48.298;11.620;2023-01-16T02:48:25;95105.16;;;0.51;100.00
46724;BME280;32463;48.298;11.620;2023-01-16T02:53:59;95090.44;;;0.34;100.00
46724;BME280;32463;48.298;11.620;2023-01-16T02:56:59;95095.94;;;0.29;100.00
46724;BME280;32463;48.298;11.620;2023-01-16T02:59:24;95084.13;;;0.28;100.00
46724;BME280;32463;48.298;11.620;2023-01-16T03:01:55;95075.47;;;0.20;100.00
46724;BME280;32463;48.298;11.620;2023-01-16T03:04:51;95085.69;;;0.20;100.00
46724;BME280;32463;48.298;11.620;2023-01-16T03:07:46;95077.59;;;0.15;100.00
46724;BME280;32463;48.298;11.620;2023-01-16T03:15:56;95058.34;;;0.01;100.00
46724;BME280;32463;48.298;11.620;2023-01-16T03:18:41;95058.06;;;-0.06;100.00
46724;BME280;32463;48.298;11.620;2023-01-16T03:21:31;95049.22;;;-0.02;100.00
46724;BME280;32463;48.298;11.620;2023-01-16T03:24:27;95036.75;;;-0.05;100.00
46724;BME280;32463;48.298;11.620;2023-01-16T03:27:06;95030.41;;;-0.10;100.00
46724;BME280;32463;48.298;11.620;2023-01-16T03:34:53;95007.78;;;-0.04;100.00
46724;BME280;32463;48.298;11.620;2023-01-16T03:37:48;95003.19;;;-0.10;100.00
46724;BME280;32463;48.298;11.620;2023-01-16T03:40:21;95006.41;;;-0.08;100.00
46724;BME280;32463;48.298;11.620;2023-01-16T03:43:05;94989.53;;;-0.09;100.00
46724;BME280;32463;48.298;11.620;2023-01-16T03:45:46;94978.84;;;-0.03;100.00
46724;BME280;32463;48.298;11.620;2023-01-16T03:48:27;94974.66;;;-0.04;100.00
46724;BME280;32463;48.298;11.620;2023-01-16T03:50:59;94972.88;;;-0.13;100.00
46724;BME280;32463;48.298;11.620;2023-01-16T03:53:31;94968.72;;;-0.14;100.00
46724;BME280;32463;48.298;11.620;2023-01-16T03:56:23;94963.88;;;-0.17;100.00
46724;BME280;32463;48.298;11.620;2023-01-16T03:58:53;94960.91;;;-0.22;100.00
46724;BME280;32463;48.298;11.620;2023-01-16T04:01:31;94956.31;;;-0.28;100.00
46724;BME280;32463;48.298;11.620;2023-01-16T04:06:52;94945.34;;;-0.49;100.00
46724;BME280;32463;48.298;11.620;2023-01-16T04:09:29;94947.47;;;-0.54;100.00
46724;BME280;32463;48.298;11.620;2023-01-16T04:12:01;94941.88;;;-0.48;100.00
46724;BME280;32463;48.298;11.620;2023-01-16T04:14:30;94929.88;;;-0.57;100.00
46724;BME280;32463;48.298;11.620;2023-01-16T04:16:58;94927.88;;;-0.63;100.00
46724;BME280;32463;48.298;11.620;2023-01-16T04:19:26;94915.03;;;-0.62;100.00
46724;BME280;32463;48.298;11.620;2023-01-16T04:21:54;94914.03;;;-0.71;100.00
46724;BME280;32463;48.298;11.620;2023-01-16T04:24:21;94905.34;;;-0.68;100.00
46724;BME280;32463;48.298;11.620;2023-01-16T04:26:47;94889.50;;;-0.72;100.00
46724;BME280;32463;48.298;11.620;2023-01-16T04:29:16;94875.06;;;-0.71;100.00
46724;BME280;32463;48.298;11.620;2023-01-16T04:31:43;94871.88;;;-0.63;100.00
46724;BME280;32463;48.298;11.620;2023-01-16T04:34:09;94868.44;;;-0.53;100.00
46724;BME280;32463;48.298;11.620;2023-01-16T04:36:36;94861.97;;;-0.57;100.00
46724;BME280;32463;48.298;11.620;2023-01-16T04:39:02;94850.16;;;-0.68;100.00
46724;BME280;32463;48.298;11.620;2023-01-16T04:41:29;94829.25;;;-0.71;100.00
46724;BME280;32463;48.298;11.620;2023-01-16T04:44:07;94825.66;;;-0.69;100.00
46724;BME280;32463;48.298;11.620;2023-01-16T04:46:34;94827.09;;;-0.76;100.00
46724;BME280;32463;48.298;11.620;2023-01-16T04:49:02;94826.59;;;-0.70;100.00
46724;BME280;32463;48.298;11.620;2023-01-16T04:51:28;94824.97;;;-0.71;100.00
46724;BME280;32463;48.298;11.620;2023-01-16T04:53:55;94822.00;;;-0.76;100.00
46724;BME280;32463;48.298;11.620;2023-01-16T04:56:22;94814.19;;;-0.84;100.00
46724;BME280;32463;48.298;11.620;2023-01-16T04:58:48;94818.44;;;-0.94;100.00
46724;BME280;32463;48.298;11.620;2023-01-16T05:01:17;94820.31;;;-0.96;100.00
46724;BME280;32463;48.298;11.620;2023-01-16T05:03:44;94807.66;;;-1.07;100.00
46724;BME280;32463;48.298;11.620;2023-01-16T05:06:10;94798.59;;;-1.00;100.00
46724;BME280;32463;48.298;11.620;2023-01-16T05:08:37;94788.91;;;-1.06;100.00
46724;BME280;32463;48.298;11.620;2023-01-16T05:11:03;94785.13;;;-1.12;100.00
46724;BME280;32463;48.298;11.620;2023-01-16T05:13:30;94786.19;;;-1.14;100.00
46724;BME280;32463;48.298;11.620;2023-01-16T05:15:57;94782.72;;;-1.13;100.00
46724;BME280;32463;48.298;11.620;2023-01-16T05:18:24;94777.88;;;-1.16;100.00
46724;BME280;32463;48.298;11.620;2023-01-16T05:20:51;94767.97;;;-1.19;100.00
46724;BME280;32463;48.298;11.620;2023-01-16T05:23:17;94769.16;;;-1.23;100.00
46724;BME280;32463;48.298;11.620;2023-01-16T05:25:44;94762.03;;;-1.29;100.00
46724;BME280;32463;48.298;11.620;2023-01-16T05:28:10;94763.78;;;-1.20;100.00
46724;BME280;32463;48.298;11.620;2023-01-16T05:30:37;94755.94;;;-1.17;100.00
46724;BME280;32463;48.298;11.620;2023-01-16T05:33:03;94740.13;;;-1.21;100.00
46724;BME280;32463;48.298;11.620;2023-01-16T05:35:31;94753.38;;;-1.17;100.00
46724;BME280;32463;48.298;11.620;2023-01-16T05:37:58;94741.94;;;-1.32;100.00
46724;BME280;32463;48.298;11.620;2023-01-16T05:40:25;94736.38;;;-1.26;100.00
46724;BME280;32463;48.298;11.620;2023-01-16T05:42:51;94733.25;;;-1.30;100.00
46724;BME280;32463;48.298;11.620;2023-01-16T05:45:17;94719.56;;;-1.39;100.00
46724;BME280;32463;48.298;11.620;2023-01-16T05:47:44;94721.84;;;-1.36;100.00
46724;BME280;32463;48.298;11.620;2023-01-16T05:50:10;94725.03;;;-1.43;100.00
46724;BME280;32463;48.298;11.620;2023-01-16T05:52:37;94718.00;;;-1.51;100.00
46724;BME280;32463;48.298;11.620;2023-01-16T05:55:04;94709.59;;;-1.51;100.00
46724;BME280;32463;48.298;11.620;2023-01-16T05:57:30;94712.25;;;-1.53;100.00
46724;BME280;32463;48.298;11.620;2023-01-16T05:59:57;94702.88;;;-1.52;100.00
46724;BME280;32463;48.298;11.620;2023-01-16T06:02:24;94689.22;;;-1.61;100.00
46724;BME280;32463;48.298;11.620;2023-01-16T06:04:50;94690.16;;;-1.62;100.00
46724;BME280;32463;48.298;11.620;2023-01-16T06:07:17;94684.94;;;-1.60;100.00
46724;BME280;32463;48.298;11.620;2023-01-16T06:09:44;94683.72;;;-1.66;100.00
46724;BME280;32463;48.298;11.620;2023-01-16T06:12:14;94682.84;;;-1.76;100.00
46724;BME280;32463;48.298;11.620;2023-01-16T06:14:41;94666.78;;;-1.77;100.00
46724;BME280;32463;48.298;11.620;2023-01-16T06:17:08;94673.13;;;-1.71;100.00
46724;BME280;32463;48.298;11.620;2023-01-16T06:19:34;94667.34;;;-1.73;100.00
46724;BME280;32463;48.298;11.620;2023-01-16T06:22:01;94651.44;;;-1.75;100.00
46724;BME280;32463;48.298;11.620;2023-01-16T06:24:27;94646.78;;;-1.70;100.00
46724;BME280;32463;48.298;11.620;2023-01-16T06:26:53;94644.44;;;-1.62;100.00
46724;BME280;32463;48.298;11.620;2023-01-16T06:29:20;94634.75;;;-1.68;100.00
46724;BME280;32463;48.298;11.620;2023-01-16T06:31:46;94631.34;;;-1.57;100.00
46724;BME280;32463;48.298;11.620;2023-01-16T06:34:13;94610.22;;;-1.58;100.00
46724;BME280;32463;48.298;11.620;2023-01-16T06:36:39;94609.84;;;-1.44;100.00
46724;BME280;32463;48.298;11.620;2023-01-16T06:39:07;94602.47;;;-1.47;100.00
46724;BME280;32463;48.298;11.620;2023-01-16T06:41:33;94597.94;;;-1.43;100.00
46724;BME280;32463;48.298;11.620;2023-01-16T06:44:00;94598.50;;;-1.40;100.00
46724;BME280;32463;48.298;11.620;2023-01-16T06:46:26;94590.75;;;-1.38;100.00
46724;BME280;32463;48.298;11.620;2023-01-16T06:48:53;94583.75;;;-1.46;100.00
46724;BME280;32463;48.298;11.620;2023-01-16T06:51:19;94573.34;;;-1.43;100.00
46724;BME280;32463;48.298;11.620;2023-01-16T06:53:46;94562.63;;;-1.56;100.00
46724;BME280;32463;48.298;11.620;2023-01-16T06:56:13;94557.38;;;-1.64;100.00
46724;BME280;32463;48.298;11.620;2023-01-16T06:58:39;94548.66;;;-1.71;100.00
46724;BME280;32463;48.298;11.620;2023-01-16T07:01:06;94543.31;;;-1.68;100.00
46724;BME280;32463;48.298;11.620;2023-01-16T07:03:32;94524.81;;;-1.80;100.00
46724;BME280;32463;48.298;11.620;2023-01-16T07:05:59;94524.94;;;-1.81;100.00
46724;BME280;32463;48.298;11.620;2023-01-16T07:08:25;94524.94;;;-1.81;100.00
46724;BME280;32463;48.298;11.620;2023-01-16T07:10:52;94526.53;;;-1.80;100.00
46724;BME280;32463;48.298;11.620;2023-01-16T07:13:18;94518.00;;;-1.79;100.00
46724;BME280;32463;48.298;11.620;2023-01-16T07:15:52;94502.88;;;-1.81;100.00
46724;BME280;32463;48.298;11.620;2023-01-16T07:18:50;94496.75;;;-1.78;100.00
46724;BME280;32463;48.298;11.620;2023-01-16T07:21:30;94493.03;;;-1.74;100.00
46724;BME280;32463;48.298;11.620;2023-01-16T07:24:18;94503.84;;;-1.72;100.00
46724;BME280;32463;48.298;11.620;2023-01-16T07:26:49;94493.28;;;-1.77;100.00
46724;BME280;32463;48.298;11.620;2023-01-16T07:29:17;94488.34;;;-1.69;100.00
46724;BME280;32463;48.298;11.620;2023-01-16T07:31:43;94483.28;;;-1.69;100.00
46724;BME280;32463;48.298;11.620;2023-01-16T07:34:10;94474.97;;;-1.71;100.00
46724;BME280;32463;48.298;11.620;2023-01-16T07:36:36;94475.41;;;-1.66;100.00
46724;BME280;32463;48.298;11.620;2023-01-16T07:39:03;94463.63;;;-1.67;100.00
46724;BME280;32463;48.298;11.620;2023-01-16T07:41:29;94450.16;;;-1.58;100.00
46724;BME280;32463;48.298;11.620;2023-01-16T07:43:56;94444.00;;;-1.46;100.00
46724;BME280;32463;48.298;11.620;2023-01-16T07:46:22;94437.75;;;-1.32;100.00
46724;BME280;32463;48.298;11.620;2023-01-16T07:48:49;94439.88;;;-1.27;100.00
46724;BME280;32463;48.298;11.620;2023-01-16T07:51:17;94428.50;;;-1.23;100.00
46724;BME280;32463;48.298;11.620;2023-01-16T07:53:43;94425.69;;;-1.11;100.00
46724;BME280;32463;48.298;11.620;2023-01-16T07:56:09;94405.88;;;-1.07;100.00
46724;BME280;32463;48.298;11.620;2023-01-16T07:58:36;94402.81;;;-1.01;100.00
46724;BME280;32463;48.298;11.620;2023-01-16T08:01:04;94386.19;;;-0.95;100.00
46724;BME280;32463;48.298;11.620;2023-01-16T08:03:31;94389.09;;;-0.81;100.00
46724;BME280;32463;48.298;11.620;2023-01-16T08:05:58;94375.56;;;-0.72;100.00
46724;BME280;32463;48.298;11.620;2023-01-16T08:08:24;94375.81;;;-0.65;100.00
46724;BME280;32463;48.298;11.620;2023-01-16T08:10:55;94374.69;;;-0.53;100.00
46724;BME280;32463;48.298;11.620;2023-01-16T08:13:23;94368.53;;;-0.50;100.00
46724;BME280;32463;48.298;11.620;2023-01-16T08:15:50;94367.34;;;-0.28;100.00
46724;BME280;32463;48.298;11.620;2023-01-16T08:18:17;94355.53;;;-0.20;100.00
46724;BME280;32463;48.298;11.620;2023-01-16T08:20:45;94356.66;;;-0.05;100.00
46724;BME280;32463;48.298;11.620;2023-01-16T08:23:12;94353.53;;;0.02;100.00
46724;BME280;32463;48.298;11.620;2023-01-16T08:25:38;94341.91;;;0.17;100.00
46724;BME280;32463;48.298;11.620;2023-01-16T08:28:05;94346.16;;;0.26;100.00
46724;BME280;32463;48.298;11.620;2023-01-16T08:30:31;94333.47;;;0.34;100.00
46724;BME280;32463;48.298;11.620;2023-01-16T08:32:59;94327.22;;;0.46;100.00
46724;BME280;32463;48.298;11.620;2023-01-16T08:35:26;94320.94;;;0.58;100.00
46724;BME280;32463;48.298;11.620;2023-01-16T08:37:53;94311.50;;;0.77;100.00
46724;BME280;32463;48.298;11.620;2023-01-16T08:40:20;94305.38;;;0.87;100.00
46724;BME280;32463;48.298;11.620;2023-01-16T08:42:47;94298.84;;;0.93;100.00
46724;BME280;32463;48.298;11.620;2023-01-16T08:45:30;94292.25;;;1.08;100.00
46724;BME280;32463;48.298;11.620;2023-01-16T08:48:19;94278.91;;;1.22;100.00
46724;BME280;32463;48.298;11.620;2023-01-16T08:51:10;94282.22;;;1.41;100.00
46724;BME280;32463;48.298;11.620;2023-01-16T08:53:52;94267.88;;;1.48;100.00
46724;BME280;32463;48.298;11.620;2023-01-16T08:56:19;94261.22;;;1.63;100.00
46724;BME280;32463;48.298;11.620;2023-01-16T08:58:46;94260.31;;;1.72;100.00
46724;BME280;32463;48.298;11.620;2023-01-16T09:01:13;94247.56;;;1.80;100.00
46724;BME280;32463;48.298;11.620;2023-01-16T09:03:41;94242.91;;;1.84;100.00
46724;BME280;32463;48.298;11.620;2023-01-16T09:06:07;94233.84;;;1.97;100.00
46724;BME280;32463;48.298;11.620;2023-01-16T09:08:33;94226.19;;;2.06;100.00
46724;BME280;32463;48.298;11.620;2023-01-16T09:11:00;94215.19;;;2.13;100.00
46724;BME280;32463;48.298;11.620;2023-01-16T09:13:44;94204.13;;;2.21;100.00
46724;BME280;32463;48.298;11.620;2023-01-16T09:16:24;94198.72;;;2.40;100.00
46724;BME280;32463;48.298;11.620;2023-01-16T09:18:51;94198.53;;;2.50;100.00
46724;BME280;32463;48.298;11.620;2023-01-16T09:21:18;94184.28;;;2.63;100.00
46724;BME280;32463;48.298;11.620;2023-01-16T09:23:45;94180.25;;;2.77;100.00
46724;BME280;32463;48.298;11.620;2023-01-16T09:26:12;94166.66;;;2.77;100.00
46724;BME280;32463;48.298;11.620;2023-01-16T09:28:39;94162.97;;;2.79;100.00
46724;BME280;32463;48.298;11.620;2023-01-16T09:31:05;94159.59;;;2.87;100.00
46724;BME280;32463;48.298;11.620;2023-01-16T09:33:32;94160.72;;;2.84;100.00
46724;BME280;32463;48.298;11.620;2023-01-16T09:35:58;94165.66;;;2.94;100.00
46724;BME280;32463;48.298;11.620;2023-01-16T09:38:25;94157.75;;;3.12;100.00
46724;BME280;32463;48.298;11.620;2023-01-16T09:40:56;94150.38;;;3.17;100.00
46724;BME280;32463;48.298;11.620;2023-01-16T09:43:36;94150.06;;;3.43;100.00
46724;BME280;32463;48.298;11.620;2023-01-16T09:48:52;94123.56;;;3.81;100.00
46724;BME280;32463;48.298;11.620;2023-01-16T09:51:26;94108.97;;;4.04;100.00
46724;BME280;32463;48.298;11.620;2023-01-16T09:53:59;94100.81;;;4.24;100.00
46724;BME280;32463;48.298;11.620;2023-01-16T09:56:48;94093.47;;;4.21;100.00
46724;BME280;32463;48.298;11.620;2023-01-16T09:59:49;94098.53;;;4.44;100.00
46724;BME280;32463;48.298;11.620;2023-01-16T10:04:54;94079.19;;;4.92;100.00
46724;BME280;32463;48.298;11.620;2023-01-16T10:10:36;94055.16;;;5.50;91.01
46724;BME280;32463;48.298;11.620;2023-01-16T10:13:13;94048.41;;;5.70;89.88
46724;BME280;32463;48.298;11.620;2023-01-16T10:21:24;94014.00;;;4.71;100.00
46724;BME280;32463;48.298;11.620;2023-01-16T10:24:00;94014.00;;;4.71;100.00
46724;BME280;32463;48.298;11.620;2023-01-16T10:26:54;93991.72;;;5.29;100.00
46724;BME280;32463;48.298;11.620;2023-01-16T10:34:54;93954.19;;;5.84;91.55
46724;BME280;32463;48.298;11.620;2023-01-16T10:37:26;93948.78;;;6.00;84.67
46724;BME280;32463;48.298;11.620;2023-01-16T10:39:53;93946.13;;;6.22;81.44
46724;BME280;32463;48.298;11.620;2023-01-16T10:42:28;93940.41;;;6.67;78.96
46724;BME280;32463;48.298;11.620;2023-01-16T10:45:19;93937.72;;;6.48;77.63
46724;BME280;32463;48.298;11.620;2023-01-16T10:48:08;93923.19;;;6.27;77.83
46724;BME280;32463;48.298;11.620;2023-01-16T10:50:53;93907.91;;;6.66;76.31
46724;BME280;32463;48.298;11.620;2023-01-16T10:53:20;93902.28;;;6.43;78.84
46724;BME280;32463;48.298;11.620;2023-01-16T10:55:47;93900.34;;;6.58;76.70
46724;BME280;32463;48.298;11.620;2023-01-16T11:00:43;93889.06;;;6.59;76.92
46724;BME280;32463;48.298;11.620;2023-01-16T11:03:14;93885.03;;;7.31;70.32
46724;BME280;32463;48.298;11.620;2023-01-16T11:05:42;93877.88;;;7.26;68.93
46724;BME280;32463;48.298;11.620;2023-01-16T11:08:16;93867.97;;;6.97;68.88
46724;BME280;32463;48.298;11.620;2023-01-16T11:10:46;93861.91;;;5.96;75.56
46724;BME280;32463;48.298;11.620;2023-01-16T11:13:14;93866.34;;;5.74;79.18
46724;BME280;32463;48.298;11.620;2023-01-16T11:18:55;93860.41;;;6.15;81.87
46724;BME280;32463;48.298;11.620;2023-01-16T11:23:57;93840.16;;;7.65;70.74
46724;BME280;32463;48.298;11.620;2023-01-16T11:26:26;93835.44;;;8.64;66.30
46724;BME280;32463;48.298;11.620;2023-01-16T11:28:53;93827.97;;;8.50;65.33
46724;BME280;32463;48.298;11.620;2023-01-16T11:31:27;93815.09;;;8.74;65.65
46724;BME280;32463;48.298;11.620;2023-01-16T11:34:03;93805.06;;;9.59;62.25
46724;BME280;32463;48.298;11.620;2023-01-16T11:36:33;93776.75;;;9.03;59.03
46724;BME280;32463;48.298;11.620;2023-01-16T11:39:00;93776.94;;;9.26;59.70
46724;BME280;32463;48.298;11.620;2023-01-16T11:41:37;93776.06;;;8.58;59.75
46724;BME280;32463;48.298;11.620;2023-01-16T11:44:13;93763.88;;;8.71;59.65
46724;BME280;32463;48.298;11.620;2023-01-16T11:46:59;93753.75;;;8.95;59.40
46724;BME280;32463;48.298;11.620;2023-01-16T11:49:39;93751.94;;;8.70;59.15
46724;BME280;32463;48.298;11.620;2023-01-16T11:52:09;93739.75;;;8.21;60.27
46724;BME280;32463;48.298;11.620;2023-01-16T11:54:38;93721.94;;;8.06;61.18
46724;BME280;32463;48.298;11.620;2023-01-16T12:02:41;93685.34;;;7.47;63.06
46724;BME280;32463;48.298;11.620;2023-01-16T12:05:28;93669.75;;;7.66;64.23
46724;BME280;32463;48.298;11.620;2023-01-16T12:13:59;93671.25;;;9.36;58.57
46724;BME280;32463;48.298;11.620;2023-01-16T12:27:37;93687.25;;;8.02;57.27
46724;BME280;32463;48.298;11.620;2023-01-16T12:33:09;93684.28;;;7.61;59.06
46724;BME280;32463;48.298;11.620;2023-01-16T12:35:55;93674.50;;;7.31;61.70
46724;BME280;32463;48.298;11.620;2023-01-16T12:38:27;93671.63;;;7.01;62.80
46724;BME280;32463;48.298;11.620;2023-01-16T12:41:19;93668.84;;;7.03;64.19
46724;BME280;32463;48.298;11.620;2023-01-16T12:44:33;93666.22;;;7.16;66.24
46724;BME280;32463;48.298;11.620;2023-01-16T12:55:44;93655.22;;;6.63;70.83
46724;BME280;32463;48.298;11.620;2023-01-16T12:58:30;93649.28;;;6.49;71.52
46724;BME280;32463;48.298;11.620;2023-01-16T13:01:08;93653.25;;;6.58;72.29
46724;BME280;32463;48.298;11.620;2023-01-16T13:03:47;93655.03;;;6.51;74.83
46724;BME280;32463;48.298;11.620;2023-01-16T13:06:23;93648.91;;;6.39;76.85
46724;BME280;32463;48.298;11.620;2023-01-16T13:08:55;93649.69;;;6.20;73.75
46724;BME280;32463;48.298;11.620;2023-01-16T13:11:32;93640.19;;;6.14;76.86
46724;BME280;32463;48.298;11.620;2023-01-16T13:14:22;93644.16;;;6.03;77.56
46724;BME280;32463;48.298;11.620;2023-01-16T13:17:08;93638.00;;;5.97;80.33
46724;BME280;32463;48.298;11.620;2023-01-16T13:19:40;93638.81;;;5.98;79.16
46724;BME280;32463;48.298;11.620;2023-01-16T13:22:14;93649.28;;;5.96;77.14
46724;BME280;32463;48.298;11.620;2023-01-16T13:25:00;93667.09;;;5.98;76.63
46724;BME280;32463;48.298;11.620;2023-01-16T13:27:38;93679.47;;;5.81;77.29
46724;BME280;32463;48.298;11.620;2023-01-16T13:30:16;93685.53;;;5.54;80.73
46724;BME280;32463;48.298;11.620;2023-01-16T13:32:53;93686.69;;;5.45;84.14
46724;BME280;32463;48.298;11.620;2023-01-16T13:35:43;93685.28;;;5.35;86.39
46724;BME280;32463;48.298;11.620;2023-01-16T13:41:26;93677.56;;;5.35;87.54
46724;BME280;32463;48.298;11.620;2023-01-16T13:44:06;93679.16;;;5.36;85.52
46724;BME280;32463;48.298;11.620;2023-01-16T13:47:04;93672.81;;;5.32;83.87
46724;BME280;32463;48.298;11.620;2023-01-16T13:49:32;93665.72;;;5.34;81.11
46724;BME280;32463;48.298;11.620;2023-01-16T13:52:01;93668.50;;;5.39;80.14
46724;BME280;32463;48.298;11.620;2023-01-16T13:54:48;93659.03;;;5.47;78.76
46724;BME280;32463;48.298;11.620;2023-01-16T13:57:21;93652.31;;;5.46;77.47
46724;BME280;32463;48.298;11.620;2023-01-16T13:59:50;93651.34;;;5.47;76.44
46724;BME280;32463;48.298;11.620;2023-01-16T14:02:39;93642.84;;;5.46;78.00
46724;BME280;32463;48.298;11.620;2023-01-16T14:10:44;93646.81;;;5.62;74.80
46724;BME280;32463;48.298;11.620;2023-01-16T14:13:24;93640.53;;;5.71;76.40
46724;BME280;32463;48.298;11.620;2023-01-16T14:15:53;93644.47;;;5.73;74.88
46724;BME280;32463;48.298;11.620;2023-01-16T14:18:58;93648.22;;;5.71;73.55
46724;BME280;32463;48.298;11.620;2023-01-16T14:21:39;93641.72;;;5.75;87.78
46724;BME280;32463;48.298;11.620;2023-01-16T14:24:18;93631.44;;;5.75;86.54
46724;BME280;32463;48.298;11.620;2023-01-16T14:26:57;93637.72;;;5.66;78.78
46724;BME280;32463;48.298;11.620;2023-01-16T14:29:34;93639.50;;;5.59;78.70
46724;BME280;32463;48.298;11.620;2023-01-16T14:34:46;93640.84;;;5.41;79.92
46724;BME280;32463;48.298;11.620;2023-01-16T14:37:27;93631.72;;;5.32;80.13
46724;BME280;32463;48.298;11.620;2023-01-16T14:40:01;93623.00;;;5.27;81.90
46724;BME280;32463;48.298;11.620;2023-01-16T14:42:35;93619.03;;;5.24;83.01
46724;BME280;32463;48.298;11.620;2023-01-16T14:45:32;93624.97;;;5.25;82.79
46724;BME280;32463;48.298;11.620;2023-01-16T14:54:00;93615.22;;;5.07;90.15
46724;BME280;32463;48.298;11.620;2023-01-16T14:56:49;93603.91;;;4.95;93.05
46724;BME280;32463;48.298;11.620;2023-01-16T14:59:32;93583.94;;;4.84;94.61
46724;BME280;32463;48.298;11.620;2023-01-16T15:02:46;93592.38;;;4.78;94.99
46724;BME280;32463;48.298;11.620;2023-01-16T15:07:31;93608.69;;;4.63;98.00
46724;BME280;32463;48.298;11.620;2023-01-16T15:10:03;93611.81;;;4.59;99.00
46724;BME280;32463;48.298;11.620;2023-01-16T15:12:40;93599.34;;;4.49;100.00